Time;durP1;ratioP1;P1;durP2;ratioP2;P2;SDS_P1;SDS_P2;PMS_P1;PMS_P2;Temp;Humidity;BMP_temperature;BMP_pressure;BME280_temperature;BME280_humidity;BME280_pressure;Samples;Min_cycle;Max_cycle;Signal;HPM_P1;HPM_P2
2024/01/26 00:00:49;;;;;;;22.33;12.95;;;5.90;99.90;;;;;;5023500;28;20069;-50
2024/01/26 00:03:16;;;;;;;;;;;5.90;99.90;;;;;;5026670;28;20479;-52
2024/01/26 00:05:43;;;;;;;22.73;12.23;;;5.90;99.90;;;;;;5031660;28;20292;-50
2024/01/26 00:08:13;;;;;;;21.10;11.73;;;5.80;99.90;;;;;;5031514;28;20095;-51
2024/01/26 00:10:40;;;;;;;18.02;11.00;;;5.80;99.90;;;;;;5031831;28;20065;-53
2024/01/26 00:13:07;;;;;;;21.08;12.25;;;5.80;99.90;;;;;;5018015;28;20048;-51
2024/01/26 00:15:34;;;;;;;22.88;13.00;;;5.80;99.90;;;;;;5028707;28;20048;-50
2024/01/26 00:18:01;;;;;;;22.02;14.27;;;5.80;99.90;;;;;;5018238;28;20060;-51
2024/01/26 00:20:28;;;;;;;;;;;5.80;99.90;;;;;;5030354;28;20091;-52
2024/01/26 00:22:55;;;;;;;21.38;12.57;;;5.80;99.90;;;;;;5019612;28;19925;-52
2024/01/26 00:25:23;;;;;;;22.15;12.82;;;5.80;99.90;;;;;;5015058;28;20066;-50
2024/01/26 00:27:50;;;;;;;21.60;13.75;;;5.90;99.90;;;;;;5021676;28;20107;-50
2024/01/26 00:30:17;;;;;;;24.60;14.43;;;5.90;99.90;;;;;;5015670;28;20505;-52
2024/01/26 00:32:44;;;;;;;25.92;15.07;;;6.00;99.90;;;;;;5015240;28;20505;-53
2024/01/26 00:35:11;;;;;;;28.05;16.10;;;6.00;99.90;;;;;;5025867;28;20520;-50
2024/01/26 00:37:38;;;;;;;24.63;14.73;;;6.00;99.90;;;;;;5017031;28;20045;-52
2024/01/26 00:40:07;;;;;;;23.63;14.88;;;6.00;99.90;;;;;;5019151;28;20053;-52
2024/01/26 00:42:34;;;;;;;27.95;16.10;;;6.00;99.90;;;;;;5019226;28;20490;-50
2024/01/26 00:45:01;;;;;;;29.02;15.93;;;6.00;99.90;;;;;;5029924;28;20076;-52
2024/01/26 00:47:29;;;;;;;29.75;16.27;;;6.00;99.90;;;;;;5024301;28;20059;-50
2024/01/26 00:49:55;;;;;;;26.20;15.50;;;6.00;99.90;;;;;;5031590;28;20111;-51
2024/01/26 00:52:22;;;;;;;28.25;14.48;;;6.00;99.90;;;;;;5023754;28;20041;-51
2024/01/26 00:54:49;;;;;;;28.42;15.10;;;6.00;99.90;;;;;;5030844;28;20037;-50
2024/01/26 00:57:16;;;;;;;25.27;14.82;;;6.00;99.90;;;;;;5030609;28;20087;-52
2024/01/26 00:59:43;;;;;;;27.25;15.32;;;6.00;99.90;;;;;;5031331;28;20061;-51
2024/01/26 01:02:10;;;;;;;27.15;15.60;;;6.00;99.90;;;;;;5022998;28;20065;-52
2024/01/26 01:04:37;;;;;;;26.52;16.20;;;6.00;99.90;;;;;;5025994;28;20065;-51
2024/01/26 01:07:04;;;;;;;29.38;16.50;;;6.00;99.90;;;;;;5031080;28;20045;-50
2024/01/26 01:09:31;;;;;;;29.45;16.67;;;6.00;99.90;;;;;;5031366;28;20124;-51
2024/01/26 01:11:58;;;;;;;31.40;17.50;;;6.00;99.90;;;;;;5022715;28;20096;-53
2024/01/26 01:14:25;;;;;;;33.30;19.00;;;5.90;99.90;;;;;;5024765;28;20037;-51
2024/01/26 01:16:52;;;;;;;30.13;17.67;;;5.90;99.90;;;;;;5028920;28;20411;-53
2024/01/26 01:19:18;;;;;;;33.38;18.88;;;5.90;99.90;;;;;;5029872;28;20054;-51
2024/01/26 01:21:45;;;;;;;34.03;18.52;;;5.80;99.90;;;;;;5030759;28;20091;-50
2024/01/26 01:24:12;;;;;;;33.80;18.33;;;5.80;99.90;;;;;;5027649;28;20500;-51
2024/01/26 01:26:39;;;;;;;33.83;18.33;;;5.80;99.90;;;;;;5026625;28;20038;-50
2024/01/26 01:29:06;;;;;;;37.75;19.10;;;5.80;99.90;;;;;;5030726;28;20104;-51
2024/01/26 01:31:33;;;;;;;37.08;19.30;;;5.80;99.90;;;;;;5031217;28;20049;-51
2024/01/26 01:34:00;;;;;;;35.72;18.83;;;5.80;99.90;;;;;;5018040;28;20050;-52
2024/01/26 01:36:28;;;;;;;;;;;5.80;99.90;;;;;;5031472;28;20037;-52
2024/01/26 01:38:55;;;;;;;36.53;18.92;;;5.80;99.90;;;;;;5029292;28;19965;-52
2024/01/26 01:41:22;;;;;;;35.15;19.10;;;5.80;99.90;;;;;;5025709;28;20046;-50
2024/01/26 01:43:56;;;;;;;34.15;19.58;;;5.80;99.90;;;;;;5027111;28;20034;-51
2024/01/26 01:46:23;;;;;;;31.70;17.10;;;5.70;99.90;;;;;;5023573;28;20034;-52
2024/01/26 01:48:50;;;;;;;31.85;18.17;;;5.80;99.90;;;;;;5022558;28;20402;-51
2024/01/26 01:51:17;;;;;;;29.85;17.30;;;5.80;99.90;;;;;;5027226;28;20075;-52
2024/01/26 01:53:46;;;;;;;33.88;17.60;;;5.80;99.90;;;;;;5028065;28;20418;-50
2024/01/26 01:56:15;;;;;;;33.80;18.27;;;5.80;99.90;;;;;;5021366;28;20038;-51
2024/01/26 01:58:41;;;;;;;28.33;17.42;;;5.80;99.90;;;;;;5020199;28;20080;-52
2024/01/26 02:01:08;;;;;;;32.38;17.23;;;5.80;99.90;;;;;;5018952;28;20046;-53
2024/01/26 02:03:35;;;;;;;29.88;17.05;;;5.80;99.90;;;;;;5033904;28;20485;-51
2024/01/26 02:06:03;;;;;;;31.52;18.02;;;5.70;99.90;;;;;;5032995;28;20060;-50
2024/01/26 02:08:30;;;;;;;34.70;18.88;;;5.80;99.90;;;;;;5034395;28;20041;-50
2024/01/26 02:10:57;;;;;;;29.42;17.58;;;5.80;99.90;;;;;;5027211;28;20049;-50
2024/01/26 02:13:25;;;;;;;31.23;16.73;;;5.80;99.90;;;;;;5034041;28;20081;-52
2024/01/26 02:15:52;;;;;;;30.52;17.63;;;5.80;99.90;;;;;;5032668;28;20050;-50
2024/01/26 02:18:18;;;;;;;30.02;16.50;;;5.80;99.90;;;;;;5025095;28;20052;-50
2024/01/26 02:20:45;;;;;;;30.42;16.90;;;5.80;99.90;;;;;;5027808;28;20462;-50
2024/01/26 02:23:24;;;;;;;29.55;16.10;;;5.70;99.90;;;;;;5025670;28;20044;-52
2024/01/26 02:25:51;;;;;;;33.65;17.80;;;5.70;99.90;;;;;;5029344;28;20053;-52
2024/01/26 02:28:18;;;;;;;37.03;18.83;;;5.70;99.90;;;;;;5033699;28;20044;-51
2024/01/26 02:30:45;;;;;;;38.05;20.48;;;5.70;99.90;;;;;;5033304;28;20048;-50
2024/01/26 02:33:12;;;;;;;39.80;19.92;;;5.70;99.90;;;;;;5033412;28;20126;-54
2024/01/26 02:35:39;;;;;;;38.55;20.20;;;5.70;99.90;;;;;;5028976;28;20120;-50
2024/01/26 02:38:06;;;;;;;37.22;19.15;;;5.70;99.90;;;;;;5016050;28;20409;-51
2024/01/26 02:40:33;;;;;;;33.17;18.95;;;5.70;99.90;;;;;;5033589;28;20048;-51
2024/01/26 02:43:00;;;;;;;35.72;20.17;;;5.70;99.90;;;;;;5033574;28;20100;-50
2024/01/26 02:45:26;;;;;;;37.90;19.17;;;5.70;99.90;;;;;;5031453;28;20037;-51
2024/01/26 02:47:54;;;;;;;34.30;18.20;;;5.70;99.90;;;;;;5028344;28;20053;-52
2024/01/26 02:50:21;;;;;;;37.38;17.45;;;5.70;99.90;;;;;;5033488;28;20033;-51
2024/01/26 02:52:47;;;;;;;35.08;19.02;;;5.80;99.90;;;;;;5028853;28;20475;-52
2024/01/26 02:55:14;;;;;;;34.53;19.00;;;5.70;99.90;;;;;;5033081;28;20060;-52
2024/01/26 02:57:41;;;;;;;41.15;19.98;;;5.70;99.90;;;;;;5032632;28;20043;-52
2024/01/26 03:00:08;;;;;;;34.13;19.20;;;5.80;99.90;;;;;;5032835;28;20049;-50
2024/01/26 03:02:35;;;;;;;34.58;17.90;;;5.80;99.90;;;;;;5032561;28;20048;-51
2024/01/26 03:05:02;;;;;;;37.38;20.48;;;5.80;99.90;;;;;;5028220;28;20448;-51
2024/01/26 03:07:29;;;;;;;35.40;19.60;;;5.70;99.90;;;;;;5033437;28;20049;-51
2024/01/26 03:09:56;;;;;;;39.58;21.13;;;5.70;99.90;;;;;;5029118;28;20041;-51
2024/01/26 03:12:23;;;;;;;37.60;19.70;;;5.70;99.90;;;;;;5033211;28;20037;-50
2024/01/26 03:14:52;;;;;;;39.58;20.23;;;5.70;99.90;;;;;;5031856;28;20041;-52
2024/01/26 03:17:19;;;;;;;38.55;21.58;;;5.70;99.90;;;;;;5033025;28;20064;-51
2024/01/26 03:19:46;;;;;;;46.63;21.48;;;5.60;99.90;;;;;;5026777;28;20112;-51
2024/01/26 03:22:12;;;;;;;38.13;20.00;;;5.60;99.90;;;;;;5031244;28;20049;-50
2024/01/26 03:24:39;;;;;;;35.10;18.42;;;5.60;99.90;;;;;;5032283;28;20037;-52
2024/01/26 03:27:06;;;;;;;38.95;19.98;;;5.60;99.90;;;;;;5032865;28;20099;-53
2024/01/26 03:29:33;;;;;;;26.25;14.38;;;5.60;99.90;;;;;;5031777;28;20099;-51
2024/01/26 03:32:00;;;;;;;36.97;19.30;;;5.60;99.90;;;;;;5026804;28;20049;-52
2024/01/26 03:34:27;;;;;;;38.00;19.10;;;5.50;99.90;;;;;;5024490;28;20057;-51
2024/01/26 03:36:54;;;;;;;39.70;20.25;;;5.50;99.90;;;;;;5032503;28;20044;-51
2024/01/26 03:39:20;;;;;;;39.90;19.73;;;5.60;99.90;;;;;;5032540;28;20045;-50
2024/01/26 03:41:49;;;;;;;38.83;19.98;;;5.60;99.90;;;;;;5024894;28;20046;-50
2024/01/26 03:44:16;;;;;;;34.95;18.83;;;5.60;99.90;;;;;;5012928;28;20372;-51
2024/01/26 03:46:43;;;;;;;;;;;5.60;99.90;;;;;;5032319;28;20052;-50
2024/01/26 03:49:10;;;;;;;38.20;19.75;;;5.60;99.90;;;;;;5032582;28;19921;-50
2024/01/26 03:51:37;;;;;;;35.67;18.63;;;5.60;99.90;;;;;;5026689;28;20539;-51
2024/01/26 03:54:05;;;;;;;40.05;20.02;;;5.60;99.90;;;;;;5029079;28;20041;-51
2024/01/26 03:56:31;;;;;;;36.88;20.40;;;5.60;99.90;;;;;;5032071;28;20049;-52
2024/01/26 03:58:58;;;;;;;32.38;16.98;;;5.60;99.90;;;;;;5030886;28;20045;-51
2024/01/26 04:01:25;;;;;;;20.65;10.20;;;5.50;99.90;;;;;;5023894;28;20076;-51
2024/01/26 04:03:52;;;;;;;23.50;12.23;;;5.50;99.90;;;;;;5027162;28;20497;-51
2024/01/26 04:06:19;;;;;;;24.52;12.13;;;5.50;99.90;;;;;;5032152;28;20120;-51
2024/01/26 04:08:46;;;;;;;27.85;14.75;;;5.50;99.90;;;;;;5031860;28;20033;-52
2024/01/26 04:11:13;;;;;;;30.63;15.95;;;5.40;99.90;;;;;;5031737;28;20049;-52
2024/01/26 04:13:39;;;;;;;31.38;16.40;;;5.40;99.90;;;;;;5022987;28;20464;-50
2024/01/26 04:16:07;;;;;;;32.13;16.77;;;5.50;99.90;;;;;;5024274;28;20054;-50
2024/01/26 04:18:34;;;;;;;32.08;16.08;;;5.40;99.90;;;;;;5031497;28;20060;-52
2024/01/26 04:21:01;;;;;;;31.25;16.70;;;5.40;99.90;;;;;;5031658;28;20042;-50
2024/01/26 04:23:28;;;;;;;29.52;15.95;;;5.40;99.90;;;;;;5025715;28;20041;-54
2024/01/26 04:25:55;;;;;;;30.83;16.38;;;5.40;99.90;;;;;;5025641;28;20450;-52
2024/01/26 04:28:21;;;;;;;24.65;13.73;;;5.40;99.90;;;;;;5031445;28;20642;-51
2024/01/26 04:30:49;;;;;;;31.85;16.13;;;5.40;99.90;;;;;;5027171;28;20489;-55
2024/01/26 04:33:15;;;;;;;31.73;17.73;;;5.50;99.90;;;;;;5033395;28;20065;-50
2024/01/26 04:35:42;;;;;;;32.85;16.63;;;5.40;99.90;;;;;;5033522;28;20128;-52
2024/01/26 04:38:09;;;;;;;32.65;16.98;;;5.40;99.90;;;;;;5034506;28;20045;-50
2024/01/26 04:40:38;;;;;;;31.50;15.80;;;5.40;99.90;;;;;;5032125;28;20120;-52
2024/01/26 04:43:05;;;;;;;34.72;17.15;;;5.40;99.90;;;;;;5037229;28;20049;-50
2024/01/26 04:45:32;;;;;;;32.75;17.10;;;5.40;99.90;;;;;;5037214;28;20379;-51
2024/01/26 04:47:59;;;;;;;32.85;16.48;;;5.40;99.90;;;;;;5030295;28;20050;-51
2024/01/26 04:50:26;;;;;;;30.75;16.70;;;5.40;99.90;;;;;;5037708;28;20160;-51
2024/01/26 04:52:53;;;;;;;37.55;17.15;;;5.40;99.90;;;;;;5032206;28;20551;-54
2024/01/26 04:55:29;;;;;;;;;;;5.30;99.90;;;;;;5029625;28;20314;-52
2024/01/26 04:57:56;;;;;;;36.13;17.48;;;5.30;99.90;;;;;;5039537;28;20023;-54
2024/01/26 05:00:23;;;;;;;37.78;18.15;;;5.30;99.90;;;;;;5039042;28;20056;-51
2024/01/26 05:02:50;;;;;;;34.20;17.63;;;5.30;99.90;;;;;;5031178;28;20053;-50
2024/01/26 05:05:17;;;;;;;39.92;18.80;;;5.30;99.90;;;;;;5026590;28;20506;-53
2024/01/26 05:07:43;;;;;;;37.60;19.10;;;5.40;99.90;;;;;;5037577;28;20117;-50
2024/01/26 05:10:11;;;;;;;35.80;19.02;;;5.40;99.90;;;;;;5030949;28;20124;-51
2024/01/26 05:12:38;;;;;;;34.88;18.08;;;5.40;99.90;;;;;;5032770;28;20053;-51
2024/01/26 05:15:08;;;;;;;38.22;18.30;;;5.40;99.90;;;;;;5026700;28;20055;-52
2024/01/26 05:17:35;;;;;;;36.17;19.30;;;5.40;99.90;;;;;;5024132;28;20037;-51
2024/01/26 05:20:04;;;;;;;40.80;21.58;;;5.40;99.90;;;;;;5019259;28;20112;-52
2024/01/26 05:22:31;;;;;;;34.83;17.65;;;5.40;99.90;;;;;;5022228;28;20111;-50
2024/01/26 05:24:58;;;;;;;35.90;16.27;;;5.40;99.90;;;;;;5025694;28;20149;-51
2024/01/26 05:27:26;;;;;;;102.75;21.08;;;5.50;99.90;;;;;;5026517;28;20517;-52
2024/01/26 05:29:52;;;;;;;32.92;16.10;;;5.50;99.90;;;;;;5017057;28;20133;-52
2024/01/26 05:32:20;;;;;;;29.58;15.38;;;5.40;99.90;;;;;;5025173;28;20046;-50
2024/01/26 05:34:47;;;;;;;31.67;15.93;;;5.30;99.90;;;;;;5034540;28;20033;-50
2024/01/26 05:37:14;;;;;;;36.10;16.63;;;5.30;99.90;;;;;;5034666;28;20042;-53
2024/01/26 05:39:41;;;;;;;36.05;18.33;;;5.30;99.90;;;;;;5030224;28;20038;-51
2024/01/26 05:42:08;;;;;;;28.83;17.05;;;5.30;99.90;;;;;;5030621;28;20041;-51
2024/01/26 05:44:35;;;;;;;37.17;17.35;;;5.30;99.90;;;;;;5031196;28;20050;-51
2024/01/26 05:47:01;;;;;;;35.47;17.20;;;5.30;99.90;;;;;;5005785;28;20080;-50
2024/01/26 05:49:28;;;;;;;34.95;17.67;;;5.30;99.90;;;;;;5032328;28;20044;-52
2024/01/26 05:51:55;;;;;;;41.17;17.90;;;5.20;99.90;;;;;;5023864;28;20064;-52
2024/01/26 05:54:22;;;;;;;35.22;18.88;;;5.20;99.90;;;;;;5032001;28;20116;-50
2024/01/26 05:56:49;;;;;;;37.83;18.60;;;5.20;99.90;;;;;;5021411;28;20046;-51
2024/01/26 05:59:16;;;;;;;43.05;20.73;;;5.30;99.90;;;;;;5032722;28;20029;-55
2024/01/26 06:01:43;;;;;;;40.00;20.20;;;5.30;99.90;;;;;;5028146;28;20045;-52
2024/01/26 06:04:09;;;;;;;38.05;18.90;;;5.40;99.90;;;;;;5030660;28;20044;-52
2024/01/26 06:06:36;;;;;;;36.83;18.58;;;5.30;99.90;;;;;;5033468;28;20135;-53
2024/01/26 06:09:03;;;;;;;43.45;20.80;;;5.40;99.90;;;;;;5032385;28;20048;-52
2024/01/26 06:11:30;;;;;;;;;;;5.40;99.90;;;;;;5027545;28;20044;-50
2024/01/26 06:13:57;;;;;;;45.58;20.50;;;5.40;99.90;;;;;;5015910;28;19925;-52
2024/01/26 06:16:24;;;;;;;;;;;5.40;99.90;;;;;;5015412;28;20394;-51
2024/01/26 06:18:51;;;;;;;36.92;19.17;;;5.30;99.90;;;;;;5027006;28;19921;-55
2024/01/26 06:21:18;;;;;;;40.38;21.00;;;5.30;99.90;;;;;;5028918;28;20038;-51
2024/01/26 06:23:45;;;;;;;44.60;20.08;;;5.30;99.90;;;;;;5024243;28;20425;-53
2024/01/26 06:26:12;;;;;;;37.92;19.15;;;5.30;99.90;;;;;;5030383;28;20501;-51
2024/01/26 06:28:39;;;;;;;38.92;19.00;;;5.30;99.90;;;;;;5032811;28;20498;-51
2024/01/26 06:31:06;;;;;;;42.65;21.63;;;5.30;99.90;;;;;;5032940;28;20122;-51
2024/01/26 06:33:33;;;;;;;36.92;19.00;;;5.30;99.90;;;;;;5031201;28;20041;-51
2024/01/26 06:36:00;;;;;;;36.45;18.85;;;5.30;99.90;;;;;;5025213;28;20045;-50
2024/01/26 06:38:27;;;;;;;34.25;18.27;;;5.30;99.90;;;;;;5025760;28;20509;-52
2024/01/26 06:40:54;;;;;;;32.70;15.15;;;5.40;99.90;;;;;;5033587;28;20041;-51
2024/01/26 06:43:20;;;;;;;37.90;20.83;;;5.40;99.90;;;;;;5032036;28;20034;-52
2024/01/26 06:45:47;;;;;;;50.50;25.65;;;5.40;99.90;;;;;;5028070;28;20048;-53
2024/01/26 06:48:14;;;;;;;40.50;19.80;;;5.40;99.90;;;;;;5029527;28;20041;-51
2024/01/26 06:50:41;;;;;;;46.72;21.92;;;5.40;99.90;;;;;;5025098;28;20042;-50
2024/01/26 06:53:09;;;;;;;35.53;19.48;;;5.50;99.90;;;;;;5033418;28;20045;-50
2024/01/26 06:55:36;;;;;;;35.97;18.30;;;5.50;99.90;;;;;;5031124;28;20050;-50
2024/01/26 06:58:03;;;;;;;34.83;17.92;;;5.50;99.90;;;;;;5033153;28;20045;-53
2024/01/26 07:00:30;;;;;;;32.83;17.10;;;5.50;99.90;;;;;;5032779;28;20046;-51
2024/01/26 07:02:57;;;;;;;33.22;17.73;;;5.50;99.90;;;;;;5032742;28;20052;-53
2024/01/26 07:05:24;;;;;;;36.15;18.08;;;5.50;99.90;;;;;;5030186;28;20091;-52
2024/01/26 07:07:51;;;;;;;35.70;18.50;;;5.50;99.90;;;;;;5031909;28;20037;-50
2024/01/26 07:10:17;;;;;;;31.73;17.08;;;5.50;99.90;;;;;;5023236;28;20045;-52
2024/01/26 07:12:44;;;;;;;37.45;18.00;;;5.50;99.90;;;;;;5032407;28;20053;-54
2024/01/26 07:15:11;;;;;;;27.95;16.25;;;5.50;99.90;;;;;;5032518;28;20487;-52
2024/01/26 07:17:38;;;;;;;36.10;19.85;;;5.50;99.90;;;;;;5029600;28;20425;-51
2024/01/26 07:20:06;;;;;;;36.13;18.70;;;5.50;99.90;;;;;;5026682;28;20124;-52
2024/01/26 07:22:32;;;;;;;32.75;17.33;;;5.50;99.90;;;;;;5025710;28;20048;-52
2024/01/26 07:24:59;;;;;;;30.98;17.00;;;5.60;99.90;;;;;;5031312;28;20060;-50
2024/01/26 07:27:27;;;;;;;32.45;16.52;;;5.60;99.90;;;;;;5032237;28;20562;-52
2024/01/26 07:29:54;;;;;;;33.13;17.35;;;5.70;99.90;;;;;;5027094;28;20048;-52
2024/01/26 07:32:21;;;;;;;32.13;16.95;;;5.70;99.90;;;;;;5027658;28;20378;-51
2024/01/26 07:34:48;;;;;;;32.75;17.45;;;5.80;99.90;;;;;;5031405;28;20123;-51
2024/01/26 07:37:14;;;;;;;34.60;17.83;;;5.80;99.90;;;;;;5032253;28;20045;-51
2024/01/26 07:39:41;;;;;;;32.05;17.65;;;5.90;99.90;;;;;;5032075;28;20042;-50
2024/01/26 07:42:08;;;;;;;31.23;17.33;;;6.00;99.90;;;;;;5027119;28;20080;-50
2024/01/26 07:44:35;;;;;;;31.40;17.73;;;6.00;99.90;;;;;;5025949;28;20042;-50
2024/01/26 07:47:02;;;;;;;31.75;17.15;;;6.10;99.90;;;;;;5031219;28;20045;-52
2024/01/26 07:49:29;;;;;;;31.98;17.38;;;6.10;99.90;;;;;;5031556;28;20140;-50
2024/01/26 07:51:59;;;;;;;30.42;15.82;;;6.10;99.90;;;;;;5031867;28;20068;-51
2024/01/26 07:54:26;;;;;;;31.50;16.80;;;6.20;99.90;;;;;;5025810;28;20406;-51
2024/01/26 07:56:53;;;;;;;29.70;16.75;;;6.20;99.90;;;;;;5023340;28;20037;-55
2024/01/26 07:59:20;;;;;;;31.60;17.27;;;6.20;99.90;;;;;;5032014;28;20099;-52
2024/01/26 08:01:47;;;;;;;31.67;17.15;;;6.20;99.90;;;;;;5031740;28;20041;-52
2024/01/26 08:04:13;;;;;;;29.85;15.88;;;6.30;99.90;;;;;;5031356;28;20037;-51
2024/01/26 08:06:40;;;;;;;30.17;16.40;;;6.30;99.90;;;;;;5018435;28;20065;-50
2024/01/26 08:09:10;;;;;;;31.50;17.45;;;6.40;99.90;;;;;;5026474;28;20061;-51
2024/01/26 08:11:38;;;;;;;32.65;16.65;;;6.40;99.90;;;;;;5030771;28;20116;-52
2024/01/26 08:14:05;;;;;;;30.48;17.80;;;6.40;99.90;;;;;;5031136;28;20045;-51
2024/01/26 08:16:33;;;;;;;27.77;15.80;;;6.40;99.90;;;;;;5026029;28;20406;-50
2024/01/26 08:19:00;;;;;;;29.20;16.55;;;6.50;99.90;;;;;;5007456;28;20107;-51
2024/01/26 08:21:27;;;;;;;27.15;15.60;;;6.50;99.90;;;;;;5028920;28;20099;-50
2024/01/26 08:23:54;;;;;;;32.28;18.08;;;6.40;99.90;;;;;;5029321;28;20045;-53
2024/01/26 08:26:21;;;;;;;31.77;16.48;;;6.60;99.90;;;;;;5031668;28;20103;-50
2024/01/26 08:28:48;;;;;;;33.33;18.08;;;6.60;99.90;;;;;;5031744;28;20045;-51
2024/01/26 08:31:15;;;;;;;31.00;17.67;;;6.70;99.90;;;;;;5027423;28;20044;-51
2024/01/26 08:33:41;;;;;;;26.75;16.38;;;6.80;99.90;;;;;;5030699;28;20041;-51
2024/01/26 08:36:09;;;;;;;;;;;6.90;99.90;;;;;;5031852;28;20398;-55
2024/01/26 08:38:36;;;;;;;35.22;18.23;;;6.90;99.90;;;;;;5031447;28;20349;-50
2024/01/26 08:41:07;;;;;;;31.02;17.20;;;6.90;99.90;;;;;;5026565;28;20506;-51
2024/01/26 08:43:34;;;;;;;32.05;16.13;;;6.80;99.90;;;;;;5029073;28;20490;-53
2024/01/26 08:46:00;;;;;;;26.42;16.38;;;6.90;99.90;;;;;;5030868;28;20076;-50
2024/01/26 08:48:27;;;;;;;31.75;16.67;;;6.90;99.90;;;;;;5031020;28;20083;-51
2024/01/26 08:50:54;;;;;;;28.15;16.00;;;7.00;99.90;;;;;;5029170;28;20045;-51
2024/01/26 08:53:21;;;;;;;29.15;17.17;;;7.00;99.90;;;;;;5018864;28;20042;-51
2024/01/26 08:55:48;;;;;;;30.85;18.83;;;7.00;99.90;;;;;;5029593;28;20041;-51
2024/01/26 08:58:15;;;;;;;34.17;19.17;;;7.10;99.90;;;;;;5030568;28;20387;-53
2024/01/26 09:00:42;;;;;;;32.30;18.20;;;7.10;99.90;;;;;;5028667;28;20052;-52
2024/01/26 09:03:08;;;;;;;33.90;19.23;;;7.20;99.90;;;;;;5030794;28;20046;-51
2024/01/26 09:05:35;;;;;;;36.22;19.50;;;7.20;99.90;;;;;;5030404;28;20049;-52
2024/01/26 09:08:03;;;;;;;34.17;19.30;;;7.20;99.90;;;;;;5030936;28;20041;-51
2024/01/26 09:10:30;;;;;;;32.53;19.35;;;7.10;99.90;;;;;;5022069;28;20042;-51
2024/01/26 09:12:59;;;;;;;31.52;19.35;;;7.10;99.90;;;;;;5029739;28;20033;-50
2024/01/26 09:15:25;;;;;;;32.75;19.77;;;7.10;99.90;;;;;;5030518;28;20052;-54
2024/01/26 09:17:52;;;;;;;33.22;19.27;;;7.10;99.90;;;;;;5022191;28;20054;-52
2024/01/26 09:20:19;;;;;;;33.35;19.52;;;7.10;99.90;;;;;;5028135;28;20065;-51
2024/01/26 09:22:46;;;;;;;33.25;18.85;;;7.20;99.90;;;;;;5030511;28;20075;-56
2024/01/26 09:25:13;;;;;;;34.00;18.85;;;7.30;99.90;;;;;;5029540;28;20037;-50
2024/01/26 09:27:40;;;;;;;32.60;17.98;;;7.30;99.90;;;;;;5030061;28;20486;-51
2024/01/26 09:30:08;;;;;;;32.63;18.48;;;7.40;99.90;;;;;;5023162;28;20037;-51
2024/01/26 09:32:35;;;;;;;34.38;18.52;;;7.50;99.90;;;;;;5027832;28;20521;-51
2024/01/26 09:35:03;;;;;;;;;;;7.50;99.90;;;;;;5029834;28;20037;-51
2024/01/26 09:37:30;;;;;;;29.92;16.05;;;7.60;99.90;;;;;;5030822;28;20332;-51
2024/01/26 09:39:57;;;;;;;37.85;18.48;;;7.40;99.90;;;;;;5011134;28;20078;-51
2024/01/26 09:42:24;;;;;;;31.67;17.60;;;7.40;99.90;;;;;;5030748;28;20041;-52
2024/01/26 09:44:51;;;;;;;28.02;16.60;;;7.40;99.90;;;;;;5026641;28;20100;-57
2024/01/26 09:47:18;;;;;;;31.85;17.83;;;7.40;99.90;;;;;;5030745;28;20041;-53
2024/01/26 09:50:05;;;;;;;34.78;17.92;;;7.40;99.90;;;;;;5030125;28;20482;-53
2024/01/26 09:52:35;;;;;;;28.17;15.85;;;7.40;99.90;;;;;;5029787;28;20034;-52
2024/01/26 09:55:02;;;;;;;25.67;14.93;;;7.50;99.90;;;;;;5025679;28;20041;-56
2024/01/26 09:57:30;;;;;;;24.10;14.18;;;7.60;99.90;;;;;;5030568;28;20048;-50
2024/01/26 09:59:57;;;;;;;25.30;15.00;;;7.60;99.90;;;;;;5029999;28;20042;-51
2024/01/26 10:02:25;;;;;;;23.48;14.63;;;7.50;99.90;;;;;;5030519;28;20050;-51
2024/01/26 10:04:54;;;;;;;25.20;15.27;;;7.60;99.90;;;;;;5027065;28;20041;-52
2024/01/26 10:07:21;;;;;;;31.05;18.17;;;7.80;99.90;;;;;;5022773;28;20038;-52
2024/01/26 10:09:48;;;;;;;28.25;14.65;;;7.90;99.90;;;;;;5029017;28;20053;-51
2024/01/26 10:12:18;;;;;;;29.88;16.83;;;8.00;99.90;;;;;;5018912;28;20042;-53
2024/01/26 10:14:45;;;;;;;24.63;15.25;;;8.00;99.90;;;;;;5021170;28;20479;-52
2024/01/26 10:17:17;;;;;;;22.67;13.70;;;8.00;99.90;;;;;;5026392;28;20116;-52
2024/01/26 10:19:44;;;;;;;21.40;12.93;;;8.00;99.90;;;;;;5030120;28;20073;-51
2024/01/26 10:22:12;;;;;;;18.52;12.30;;;8.10;99.90;;;;;;5033321;28;20096;-50
2024/01/26 10:24:39;;;;;;;19.20;11.80;;;8.10;99.90;;;;;;5015724;28;20466;-52
2024/01/26 10:27:07;;;;;;;20.92;11.68;;;8.20;99.90;;;;;;5019029;28;20384;-51
2024/01/26 10:29:37;;;;;;;17.52;11.70;;;8.30;99.90;;;;;;5033537;28;20042;-51
2024/01/26 10:32:08;;;;;;;16.90;10.80;;;8.40;99.90;;;;;;5033412;28;20056;-50
2024/01/26 10:34:35;;;;;;;18.23;10.32;;;8.50;99.90;;;;;;5033019;28;20402;-50
2024/01/26 10:37:07;;;;;;;22.88;13.15;;;8.50;99.90;;;;;;5029413;28;20046;-50
2024/01/26 10:39:37;;;;;;;21.15;12.10;;;8.60;99.90;;;;;;5031695;28;20095;-51
2024/01/26 10:42:05;;;;;;;18.90;11.80;;;8.40;99.90;;;;;;5033078;28;20130;-51
2024/01/26 10:44:35;;;;;;;20.42;13.45;;;8.40;99.90;;;;;;5032800;28;20045;-51
2024/01/26 10:47:04;;;;;;;16.58;10.35;;;8.30;99.90;;;;;;5025251;28;20049;-52
2024/01/26 10:49:33;;;;;;;19.30;11.00;;;8.30;99.90;;;;;;5033133;28;20042;-51
2024/01/26 10:52:01;;;;;;;18.42;10.65;;;8.30;99.90;;;;;;5031102;28;20052;-51
2024/01/26 10:54:28;;;;;;;17.73;11.38;;;8.20;99.90;;;;;;5032328;28;20482;-51
2024/01/26 10:56:55;;;;;;;20.05;11.10;;;8.10;99.90;;;;;;5032941;28;20132;-50
2024/01/26 10:59:23;;;;;;;19.58;11.25;;;8.00;99.90;;;;;;5025918;28;20486;-50
2024/01/26 11:01:50;;;;;;;15.98;9.85;;;8.00;99.90;;;;;;5030406;28;20045;-51
2024/01/26 11:04:17;;;;;;;17.13;10.35;;;8.00;99.90;;;;;;5032489;28;20037;-55
2024/01/26 11:06:44;;;;;;;17.88;11.63;;;8.10;99.90;;;;;;5032754;28;20355;-51
2024/01/26 11:09:15;;;;;;;20.73;12.90;;;8.20;99.90;;;;;;5029196;28;20513;-53
2024/01/26 11:11:42;;;;;;;20.70;12.82;;;8.20;99.90;;;;;;5032924;28;20104;-51
2024/01/26 11:14:11;;;;;;;17.27;10.63;;;8.30;99.90;;;;;;5031830;28;20063;-53
2024/01/26 11:16:43;;;;;;;15.43;10.85;;;8.30;99.90;;;;;;5032838;28;20378;-53
2024/01/26 11:19:21;;;;;;;24.17;12.27;;;8.20;99.90;;;;;;5024505;28;20080;-52
2024/01/26 11:21:49;;;;;;;22.67;13.27;;;8.30;99.90;;;;;;5028196;28;20040;-55
2024/01/26 11:24:19;;;;;;;21.15;13.05;;;8.30;99.90;;;;;;5032106;28;20046;-53
2024/01/26 11:27:00;;;;;;;22.15;13.13;;;8.30;99.90;;;;;;5028008;28;20450;-51
2024/01/26 11:29:34;;;;;;;18.55;12.18;;;8.30;99.90;;;;;;5032331;28;20034;-52
2024/01/26 11:32:13;;;;;;;17.45;11.40;;;8.30;99.90;;;;;;5032351;28;20441;-54
2024/01/26 11:34:39;;;;;;;18.25;11.32;;;8.30;99.90;;;;;;5022654;28;20046;-50
2024/01/26 11:37:11;;;;;;;17.73;11.00;;;8.60;99.90;;;;;;5031148;28;20049;-52
2024/01/26 11:39:39;;;;;;;14.77;9.23;;;8.70;99.90;;;;;;5032262;28;20041;-51
2024/01/26 11:42:09;;;;;;;12.80;8.73;;;8.80;99.90;;;;;;5031326;28;20041;-55
2024/01/26 11:44:41;;;;;;;13.95;8.57;;;9.00;99.90;;;;;;5019203;28;20037;-51
2024/01/26 11:47:09;;;;;;;14.15;8.40;;;9.20;99.90;;;;;;5037870;28;20041;-50
2024/01/26 11:49:38;;;;;;;15.55;8.73;;;9.30;99.90;;;;;;5041172;28;20037;-53
2024/01/26 11:52:05;;;;;;;16.02;8.88;;;9.40;99.90;;;;;;5029040;28;20486;-51
2024/01/26 11:54:32;;;;;;;12.88;8.90;;;9.30;99.90;;;;;;5025964;28;20060;-54
2024/01/26 11:56:59;;;;;;;13.68;9.32;;;9.20;99.90;;;;;;5032361;28;20142;-52
2024/01/26 11:59:28;;;;;;;15.63;10.73;;;9.10;99.90;;;;;;5032413;28;20045;-51
2024/01/26 12:01:56;;;;;;;16.17;9.57;;;9.20;99.90;;;;;;5024084;28;20061;-52
2024/01/26 12:04:26;;;;;;;14.98;9.50;;;9.20;99.90;;;;;;5031343;28;20131;-51
2024/01/26 12:06:53;;;;;;;16.27;10.43;;;9.20;99.90;;;;;;5036174;28;20087;-51
2024/01/26 12:09:20;;;;;;;23.38;13.18;;;9.20;99.90;;;;;;5044119;28;20045;-52
2024/01/26 12:11:48;;;;;;;26.58;14.70;;;9.00;99.90;;;;;;5042817;28;20029;-51
2024/01/26 12:14:15;;;;;;;26.17;13.88;;;9.00;99.90;;;;;;5025685;28;20050;-51
2024/01/26 12:16:42;;;;;;;27.90;15.25;;;9.10;99.90;;;;;;5040562;28;20033;-52
2024/01/26 12:19:09;;;;;;;29.83;16.10;;;9.20;99.90;;;;;;5038886;28;20117;-51
2024/01/26 12:21:37;;;;;;;24.48;13.88;;;9.20;99.90;;;;;;5042167;28;20429;-51
2024/01/26 12:24:11;;;;;;;21.60;13.25;;;9.20;99.90;;;;;;5039360;28;20045;-51
2024/01/26 12:26:41;;;;;;;20.40;10.32;;;9.30;99.90;;;;;;5024259;28;20095;-52
2024/01/26 12:29:08;;;;;;;16.77;10.40;;;9.20;99.90;;;;;;5037890;28;20044;-51
2024/01/26 12:31:36;;;;;;;15.60;10.15;;;9.10;99.90;;;;;;5040875;28;20395;-51
2024/01/26 12:34:10;;;;;;;16.98;10.70;;;9.10;99.90;;;;;;5026160;28;20049;-51
2024/01/26 12:36:37;;;;;;;19.13;11.68;;;9.10;99.90;;;;;;5026494;28;20029;-51
2024/01/26 12:39:04;;;;;;;21.33;12.20;;;9.30;99.90;;;;;;5018047;28;20034;-52
2024/01/26 12:41:32;;;;;;;21.63;11.65;;;9.20;99.90;;;;;;5012511;28;20092;-53